ANZ312L NZNS-NZWN
Flight info
| Callsign | ANZ312L |
|---|---|
| Flight time | 0h 25m |
| Altitude | 11000 |
| Route | LUSRA DCT SIMZI |
| Aircraft | DH8C/M-SDFGR/S |
Departure
| Time | 2026-05-04 08:42 |
|---|---|
| Airport | Nelson Airport (NZNS) |
Arrival
| Time | 2026-05-04 09:07 |
|---|---|
| Airport | Wellington International Airport (NZWN) |
| Time | Latitude | Longitude | Altitude | Speed | Heading |
|---|---|---|---|---|---|
| 2026-05-04 08:22 | -41.29920 | 173.22485 | 28 ft | 0 kts | 40° |
| 2026-05-04 08:38 | -41.29897 | 173.22481 | 28 ft | 9 kts | 337° |
| 2026-05-04 08:40 | -41.29405 | 173.22728 | 28 ft | 33 kts | 40° |
| 2026-05-04 08:40 | -41.29274 | 173.22898 | 28 ft | 20 kts | 60° |
| 2026-05-04 08:40 | -41.29235 | 173.22959 | 28 ft | 5 kts | 338° |
| 2026-05-04 08:41 | -41.29234 | 173.22932 | 28 ft | 2 kts | 221° |
| 2026-05-04 08:41 | -41.29239 | 173.22927 | 28 ft | 0 kts | 219° |
| 2026-05-04 08:41 | -41.29275 | 173.22889 | 28 ft | 40 kts | 220° |
| 2026-05-04 08:41 | -41.29751 | 173.22339 | 29 ft | 131 kts | 222° |
| 2026-05-04 08:42 | -41.30538 | 173.21435 | 348 ft | 158 kts | 222° |
| 2026-05-04 08:42 | -41.31387 | 173.20461 | 935 ft | 167 kts | 222° |
| 2026-05-04 08:42 | -41.32320 | 173.19390 | 1323 ft | 185 kts | 222° |
| 2026-05-04 08:42 | -41.33324 | 173.18215 | 1735 ft | 198 kts | 222° |
| 2026-05-04 08:43 | -41.34399 | 173.16974 | 2089 ft | 211 kts | 222° |
| 2026-05-04 08:43 | -41.35517 | 173.15695 | 2563 ft | 212 kts | 226° |
| 2026-05-04 08:43 | -41.36278 | 173.14063 | 3089 ft | 212 kts | 248° |
| 2026-05-04 08:43 | -41.36849 | 173.12256 | 3590 ft | 213 kts | 245° |
| 2026-05-04 08:44 | -41.37551 | 173.10568 | 4275 ft | 204 kts | 240° |
| 2026-05-04 08:44 | -41.38276 | 173.08920 | 4802 ft | 208 kts | 241° |
| 2026-05-04 08:46 | -41.42948 | 173.13036 | 8387 ft | 236 kts | 59° |
| 2026-05-04 08:46 | -41.42175 | 173.14962 | 8920 ft | 237 kts | 68° |
| 2026-05-04 08:46 | -41.41564 | 173.17004 | 9453 ft | 238 kts | 69° |
| 2026-05-04 08:46 | -41.40878 | 173.19032 | 9976 ft | 241 kts | 66° |
| 2026-05-04 08:47 | -41.40158 | 173.21052 | 10488 ft | 243 kts | 66° |
| 2026-05-04 08:47 | -41.39451 | 173.23103 | 10937 ft | 248 kts | 67° |
| 2026-05-04 08:47 | -41.38736 | 173.25278 | 11018 ft | 261 kts | 67° |
| 2026-05-04 08:47 | -41.38000 | 173.27455 | 11007 ft | 254 kts | 67° |
| 2026-05-04 08:48 | -41.37252 | 173.29609 | 11021 ft | 268 kts | 66° |
| 2026-05-04 08:48 | -41.36451 | 173.31927 | 11037 ft | 282 kts | 67° |
| 2026-05-04 08:48 | -41.35644 | 173.34354 | 11041 ft | 292 kts | 67° |
| 2026-05-04 08:48 | -41.34812 | 173.36852 | 11052 ft | 296 kts | 67° |
| 2026-05-04 08:49 | -41.34005 | 173.39278 | 11024 ft | 279 kts | 67° |
| 2026-05-04 08:50 | -41.31254 | 173.53075 | 11007 ft | 262 kts | 97° |
| 2026-05-04 08:50 | -41.31319 | 173.55495 | 10997 ft | 262 kts | 91° |
| 2026-05-04 08:51 | -41.31306 | 173.57926 | 10996 ft | 263 kts | 92° |
| 2026-05-04 08:51 | -41.31343 | 173.60353 | 10998 ft | 263 kts | 94° |
| 2026-05-04 08:51 | -41.31401 | 173.62783 | 10994 ft | 263 kts | 94° |
| 2026-05-04 08:51 | -41.31467 | 173.65210 | 10990 ft | 262 kts | 94° |
| 2026-05-04 08:52 | -41.31517 | 173.67634 | 10990 ft | 262 kts | 94° |
| 2026-05-04 08:52 | -41.31564 | 173.70030 | 10991 ft | 263 kts | 94° |
| 2026-05-04 08:52 | -41.31618 | 173.72460 | 10991 ft | 263 kts | 94° |
| 2026-05-04 08:52 | -41.31677 | 173.74893 | 10988 ft | 263 kts | 94° |
| 2026-05-04 08:53 | -41.31724 | 173.77326 | 10988 ft | 263 kts | 94° |
| 2026-05-04 08:54 | -41.32074 | 173.94314 | 10992 ft | 263 kts | 94° |
| 2026-05-04 08:55 | -41.32290 | 173.96709 | 10992 ft | 260 kts | 112° |
| 2026-05-04 08:55 | -41.33012 | 173.98894 | 11004 ft | 258 kts | 118° |
| 2026-05-04 08:55 | -41.33710 | 174.01107 | 10999 ft | 260 kts | 112° |
| 2026-05-04 08:55 | -41.34282 | 174.03395 | 10998 ft | 260 kts | 110° |
| 2026-05-04 08:57 | -41.38473 | 174.19304 | 10954 ft | 260 kts | 112° |
| 2026-05-04 09:01 | -41.47206 | 174.52213 | 6579 ft | 259 kts | 112° |
| 2026-05-04 09:01 | -41.47799 | 174.54465 | 6206 ft | 256 kts | 111° |
| 2026-05-04 09:01 | -41.48383 | 174.56695 | 5834 ft | 253 kts | 111° |
| 2026-05-04 09:01 | -41.48958 | 174.58900 | 5452 ft | 250 kts | 111° |
| 2026-05-04 09:02 | -41.49353 | 174.61145 | 5046 ft | 249 kts | 94° |
| 2026-05-04 09:02 | -41.49314 | 174.63428 | 4656 ft | 244 kts | 89° |
| 2026-05-04 09:02 | -41.49312 | 174.65672 | 4283 ft | 240 kts | 94° |
| 2026-05-04 09:02 | -41.49429 | 174.67846 | 3912 ft | 236 kts | 95° |
| 2026-05-04 09:03 | -41.49533 | 174.70024 | 3519 ft | 234 kts | 92° |
| 2026-05-04 09:03 | -41.49612 | 174.72162 | 3128 ft | 229 kts | 91° |
| 2026-05-04 09:03 | -41.49688 | 174.74260 | 2791 ft | 223 kts | 91° |
| 2026-05-04 09:03 | -41.49754 | 174.76307 | 2457 ft | 218 kts | 87° |
| 2026-05-04 09:04 | -41.49442 | 174.78220 | 2080 ft | 208 kts | 57° |
| 2026-05-04 09:04 | -41.48442 | 174.79553 | 1933 ft | 203 kts | 25° |
| 2026-05-04 09:04 | -41.47113 | 174.79980 | 1940 ft | 194 kts | 2° |
| 2026-05-04 09:04 | -41.45777 | 174.79874 | 1962 ft | 191 kts | 357° |
| 2026-05-04 09:05 | -41.44463 | 174.79892 | 1955 ft | 187 kts | 4° |
| 2026-05-04 09:05 | -41.43181 | 174.80019 | 1857 ft | 190 kts | 4° |
| 2026-05-04 09:05 | -41.41874 | 174.80092 | 1651 ft | 184 kts | 2° |
| 2026-05-04 09:05 | -41.40639 | 174.80171 | 1526 ft | 170 kts | 4° |
| 2026-05-04 09:06 | -41.39491 | 174.80255 | 1353 ft | 163 kts | 2° |
| 2026-05-04 09:07 | -41.32679 | 174.80692 | 24 ft | 33 kts | 2° |
| 2026-05-04 09:08 | -41.32470 | 174.80704 | 29 ft | 23 kts | 3° |
| 2026-05-04 09:08 | -41.32411 | 174.80781 | 31 ft | 15 kts | 91° |
| 2026-05-04 09:08 | -41.32509 | 174.80829 | 28 ft | 20 kts | 183° |
| 2026-05-04 09:08 | -41.32646 | 174.80821 | 23 ft | 19 kts | 183° |
| 2026-05-04 09:09 | -41.32717 | 174.80815 | 22 ft | 13 kts | 183° |
| 2026-05-04 09:09 | -41.32848 | 174.80807 | 22 ft | 24 kts | 182° |
| 2026-05-04 09:09 | -41.33005 | 174.80797 | 23 ft | 21 kts | 183° |
| 2026-05-04 09:09 | -41.33132 | 174.80791 | 23 ft | 17 kts | 161° |
| 2026-05-04 09:10 | -41.33160 | 174.80901 | 22 ft | 15 kts | 92° |
| 2026-05-04 09:10 | -41.33159 | 174.80993 | 22 ft | 8 kts | 108° |
| 2026-05-04 09:10 | -41.33175 | 174.81041 | 24 ft | 1 kts | 115° |
| 2026-05-04 09:10 | -41.33177 | 174.81046 | 26 ft | 0 kts | 115° |